sensor_id;sensor_type;location;lat;lon;timestamp;pressure;altitude;pressure_sealevel;temperature;humidity
32251;BME280;41295;48.518;9.206;2023-08-07T00:01:40;97102.50;;;13.42;70.90
32251;BME280;41295;48.518;9.206;2023-08-07T00:03:43;97105.13;;;13.42;71.48
32251;BME280;41295;48.518;9.206;2023-08-07T00:05:45;97100.81;;;13.41;71.54
32251;BME280;41295;48.518;9.206;2023-08-07T00:07:48;97096.94;;;13.49;71.12
32251;BME280;41295;48.518;9.206;2023-08-07T00:09:51;97104.59;;;13.53;69.85
32251;BME280;41295;48.518;9.206;2023-08-07T00:11:53;97103.19;;;13.46;69.88
32251;BME280;41295;48.518;9.206;2023-08-07T00:13:57;97101.03;;;13.37;70.03
32251;BME280;41295;48.518;9.206;2023-08-07T00:16:01;97107.56;;;13.45;70.08
32251;BME280;41295;48.518;9.206;2023-08-07T00:18:06;97104.44;;;13.39;70.23
32251;BME280;41295;48.518;9.206;2023-08-07T00:20:09;97101.50;;;13.45;70.53
32251;BME280;41295;48.518;9.206;2023-08-07T00:22:12;97104.50;;;13.37;70.10
32251;BME280;41295;48.518;9.206;2023-08-07T00:24:14;97098.28;;;13.40;70.00
32251;BME280;41295;48.518;9.206;2023-08-07T00:26:17;97109.34;;;13.45;69.93
32251;BME280;41295;48.518;9.206;2023-08-07T00:28:20;97104.81;;;13.49;69.38
32251;BME280;41295;48.518;9.206;2023-08-07T00:30:22;97105.44;;;13.54;69.05
32251;BME280;41295;48.518;9.206;2023-08-07T00:32:26;97104.88;;;13.47;68.95
32251;BME280;41295;48.518;9.206;2023-08-07T00:34:29;97102.31;;;13.45;69.04
32251;BME280;41295;48.518;9.206;2023-08-07T00:36:32;97108.84;;;13.38;69.42
32251;BME280;41295;48.518;9.206;2023-08-07T00:38:36;97108.97;;;13.53;69.17
32251;BME280;41295;48.518;9.206;2023-08-07T00:40:39;97101.81;;;13.39;69.18
32251;BME280;41295;48.518;9.206;2023-08-07T00:42:42;97101.13;;;13.35;69.54
32251;BME280;41295;48.518;9.206;2023-08-07T00:44:45;97104.69;;;13.34;69.78
32251;BME280;41295;48.518;9.206;2023-08-07T00:46:47;97104.34;;;13.40;69.85
32251;BME280;41295;48.518;9.206;2023-08-07T00:48:52;97104.84;;;13.31;70.15
32251;BME280;41295;48.518;9.206;2023-08-07T00:50:55;97100.22;;;13.36;70.39
32251;BME280;41295;48.518;9.206;2023-08-07T00:52:59;97100.81;;;13.41;69.79
32251;BME280;41295;48.518;9.206;2023-08-07T00:55:02;97105.53;;;13.34;69.81
32251;BME280;41295;48.518;9.206;2023-08-07T00:57:09;97109.75;;;13.37;69.34
32251;BME280;41295;48.518;9.206;2023-08-07T00:59:13;97106.53;;;13.32;69.51
32251;BME280;41295;48.518;9.206;2023-08-07T01:01:17;97117.31;;;13.26;69.42
32251;BME280;41295;48.518;9.206;2023-08-07T01:03:20;97126.09;;;13.25;70.22
32251;BME280;41295;48.518;9.206;2023-08-07T01:05:24;97119.94;;;13.26;69.97
32251;BME280;41295;48.518;9.206;2023-08-07T01:07:27;97119.94;;;13.26;70.47
32251;BME280;41295;48.518;9.206;2023-08-07T01:09:30;97120.84;;;13.25;70.48
32251;BME280;41295;48.518;9.206;2023-08-07T01:11:36;97118.41;;;13.21;70.27
32251;BME280;41295;48.518;9.206;2023-08-07T01:13:45;97118.31;;;13.23;70.54
32251;BME280;41295;48.518;9.206;2023-08-07T01:15:49;97117.88;;;13.15;70.80
32251;BME280;41295;48.518;9.206;2023-08-07T01:17:55;97126.41;;;13.18;70.52
32251;BME280;41295;48.518;9.206;2023-08-07T01:19:58;97123.03;;;13.16;70.55
32251;BME280;41295;48.518;9.206;2023-08-07T01:22:06;97123.41;;;13.08;70.39
32251;BME280;41295;48.518;9.206;2023-08-07T01:24:08;97117.31;;;13.08;70.41
32251;BME280;41295;48.518;9.206;2023-08-07T01:26:11;97125.31;;;13.05;71.13
32251;BME280;41295;48.518;9.206;2023-08-07T01:28:17;97128.72;;;13.07;70.98
32251;BME280;41295;48.518;9.206;2023-08-07T01:30:26;97130.56;;;13.05;71.04
32251;BME280;41295;48.518;9.206;2023-08-07T01:32:35;97128.34;;;12.97;71.71
32251;BME280;41295;48.518;9.206;2023-08-07T01:34:40;97127.41;;;12.98;71.52
32251;BME280;41295;48.518;9.206;2023-08-07T01:36:45;97129.09;;;12.99;71.05
32251;BME280;41295;48.518;9.206;2023-08-07T01:38:50;97133.00;;;12.90;70.92
32251;BME280;41295;48.518;9.206;2023-08-07T01:40:54;97135.50;;;12.93;70.75
32251;BME280;41295;48.518;9.206;2023-08-07T01:42:57;97134.03;;;12.87;71.28
32251;BME280;41295;48.518;9.206;2023-08-07T01:45:00;97133.25;;;12.85;71.83
32251;BME280;41295;48.518;9.206;2023-08-07T01:47:03;97135.56;;;12.92;71.70
32251;BME280;41295;48.518;9.206;2023-08-07T01:49:06;97138.25;;;12.90;71.56
32251;BME280;41295;48.518;9.206;2023-08-07T01:51:09;97141.88;;;12.87;71.53
32251;BME280;41295;48.518;9.206;2023-08-07T01:53:12;97141.94;;;12.86;71.45
32251;BME280;41295;48.518;9.206;2023-08-07T01:55:17;97146.56;;;12.98;70.36
32251;BME280;41295;48.518;9.206;2023-08-07T01:57:20;97144.31;;;12.91;70.82
32251;BME280;41295;48.518;9.206;2023-08-07T01:59:23;97148.78;;;12.89;71.07
32251;BME280;41295;48.518;9.206;2023-08-07T02:01:25;97147.47;;;12.97;70.80
32251;BME280;41295;48.518;9.206;2023-08-07T02:03:28;97144.25;;;12.92;71.24
32251;BME280;41295;48.518;9.206;2023-08-07T02:05:31;97141.94;;;12.86;70.56
32251;BME280;41295;48.518;9.206;2023-08-07T02:07:33;97144.66;;;12.84;71.04
32251;BME280;41295;48.518;9.206;2023-08-07T02:09:36;97150.94;;;12.80;71.43
32251;BME280;41295;48.518;9.206;2023-08-07T02:11:40;97157.03;;;12.81;71.47
32251;BME280;41295;48.518;9.206;2023-08-07T02:13:44;97153.19;;;12.88;70.96
32251;BME280;41295;48.518;9.206;2023-08-07T02:15:46;97159.78;;;12.78;70.70
32251;BME280;41295;48.518;9.206;2023-08-07T02:17:49;97156.56;;;12.90;70.52
32251;BME280;41295;48.518;9.206;2023-08-07T02:19:51;97156.19;;;12.80;71.01
32251;BME280;41295;48.518;9.206;2023-08-07T02:21:54;97156.00;;;12.83;70.16
32251;BME280;41295;48.518;9.206;2023-08-07T02:23:57;97162.03;;;12.85;71.02
32251;BME280;41295;48.518;9.206;2023-08-07T02:25:59;97164.81;;;12.82;70.79
32251;BME280;41295;48.518;9.206;2023-08-07T02:28:04;97158.63;;;12.83;70.88
32251;BME280;41295;48.518;9.206;2023-08-07T02:30:07;97162.09;;;12.84;70.83
32251;BME280;41295;48.518;9.206;2023-08-07T02:32:10;97164.03;;;12.80;71.15
32251;BME280;41295;48.518;9.206;2023-08-07T02:34:12;97161.94;;;12.87;71.03
32251;BME280;41295;48.518;9.206;2023-08-07T02:36:15;97161.09;;;12.86;70.79
32251;BME280;41295;48.518;9.206;2023-08-07T02:38:17;97160.09;;;12.89;71.14
32251;BME280;41295;48.518;9.206;2023-08-07T02:40:20;97153.13;;;12.90;70.51
32251;BME280;41295;48.518;9.206;2023-08-07T02:42:23;97157.78;;;12.83;70.72
32251;BME280;41295;48.518;9.206;2023-08-07T02:44:27;97162.25;;;12.81;71.20
32251;BME280;41295;48.518;9.206;2023-08-07T02:46:29;97172.09;;;12.75;71.10
32251;BME280;41295;48.518;9.206;2023-08-07T02:48:31;97179.03;;;12.77;70.94
32251;BME280;41295;48.518;9.206;2023-08-07T02:50:35;97175.63;;;12.74;70.91
32251;BME280;41295;48.518;9.206;2023-08-07T02:52:37;97172.84;;;12.78;70.11
32251;BME280;41295;48.518;9.206;2023-08-07T02:54:40;97178.31;;;12.73;70.48
32251;BME280;41295;48.518;9.206;2023-08-07T02:56:43;97185.56;;;12.85;69.80
32251;BME280;41295;48.518;9.206;2023-08-07T02:58:46;97186.50;;;12.84;69.53
32251;BME280;41295;48.518;9.206;2023-08-07T03:00:50;97180.56;;;12.81;69.80
32251;BME280;41295;48.518;9.206;2023-08-07T03:02:53;97179.72;;;12.80;69.40
32251;BME280;41295;48.518;9.206;2023-08-07T03:04:55;97181.28;;;12.84;68.68
32251;BME280;41295;48.518;9.206;2023-08-07T03:06:58;97187.66;;;12.79;69.02
32251;BME280;41295;48.518;9.206;2023-08-07T03:09:01;97183.91;;;12.84;69.35
32251;BME280;41295;48.518;9.206;2023-08-07T03:11:03;97181.63;;;12.77;69.64
32251;BME280;41295;48.518;9.206;2023-08-07T03:13:06;97185.09;;;12.77;69.56
32251;BME280;41295;48.518;9.206;2023-08-07T03:15:09;97187.94;;;12.72;69.85
32251;BME280;41295;48.518;9.206;2023-08-07T03:17:13;97183.31;;;12.78;68.87
32251;BME280;41295;48.518;9.206;2023-08-07T03:19:16;97186.78;;;12.78;69.04
32251;BME280;41295;48.518;9.206;2023-08-07T03:21:21;97197.09;;;12.81;68.97
32251;BME280;41295;48.518;9.206;2023-08-07T03:23:23;97191.94;;;12.80;69.57
32251;BME280;41295;48.518;9.206;2023-08-07T03:25:26;97197.41;;;12.75;69.58
32251;BME280;41295;48.518;9.206;2023-08-07T03:27:29;97195.00;;;12.70;69.49
32251;BME280;41295;48.518;9.206;2023-08-07T03:29:32;97198.53;;;12.69;69.51
32251;BME280;41295;48.518;9.206;2023-08-07T03:31:34;97196.94;;;12.67;69.85
32251;BME280;41295;48.518;9.206;2023-08-07T03:33:39;97198.00;;;12.62;69.97
32251;BME280;41295;48.518;9.206;2023-08-07T03:35:42;97195.47;;;12.61;70.29
32251;BME280;41295;48.518;9.206;2023-08-07T03:37:44;97196.16;;;12.65;69.98
32251;BME280;41295;48.518;9.206;2023-08-07T03:39:47;97188.50;;;12.60;69.65
32251;BME280;41295;48.518;9.206;2023-08-07T03:41:50;97192.22;;;12.56;69.99
32251;BME280;41295;48.518;9.206;2023-08-07T03:43:52;97194.91;;;12.54;70.03
32251;BME280;41295;48.518;9.206;2023-08-07T03:45:56;97206.41;;;12.69;69.40
32251;BME280;41295;48.518;9.206;2023-08-07T03:48:03;97208.59;;;12.59;69.57
32251;BME280;41295;48.518;9.206;2023-08-07T03:50:08;97203.66;;;12.53;69.45
32251;BME280;41295;48.518;9.206;2023-08-07T03:52:10;97207.19;;;12.52;69.36
32251;BME280;41295;48.518;9.206;2023-08-07T03:54:13;97203.50;;;12.56;69.15
32251;BME280;41295;48.518;9.206;2023-08-07T03:56:15;97210.78;;;12.49;69.48
32251;BME280;41295;48.518;9.206;2023-08-07T03:58:18;97210.78;;;12.49;69.61
32251;BME280;41295;48.518;9.206;2023-08-07T04:00:21;97210.88;;;12.48;69.70
32251;BME280;41295;48.518;9.206;2023-08-07T04:02:23;97209.25;;;12.45;69.69
32251;BME280;41295;48.518;9.206;2023-08-07T04:04:26;97208.88;;;12.53;69.28
32251;BME280;41295;48.518;9.206;2023-08-07T04:06:30;97211.72;;;12.48;69.45
32251;BME280;41295;48.518;9.206;2023-08-07T04:08:33;97209.09;;;12.48;69.91
32251;BME280;41295;48.518;9.206;2023-08-07T04:10:36;97209.09;;;12.48;69.77
32251;BME280;41295;48.518;9.206;2023-08-07T04:12:39;97211.81;;;12.47;70.18
32251;BME280;41295;48.518;9.206;2023-08-07T04:14:41;97220.53;;;12.46;69.88
32251;BME280;41295;48.518;9.206;2023-08-07T04:16:44;97216.16;;;12.46;70.39
32251;BME280;41295;48.518;9.206;2023-08-07T04:18:47;97215.38;;;12.44;70.01
32251;BME280;41295;48.518;9.206;2023-08-07T04:20:50;97218.09;;;12.43;70.04
32251;BME280;41295;48.518;9.206;2023-08-07T04:22:55;97215.38;;;12.44;70.21
32251;BME280;41295;48.518;9.206;2023-08-07T04:24:57;97224.09;;;12.45;70.56
32251;BME280;41295;48.518;9.206;2023-08-07T04:27:01;97219.66;;;12.47;70.08
32251;BME280;41295;48.518;9.206;2023-08-07T04:29:04;97219.56;;;12.48;70.46
32251;BME280;41295;48.518;9.206;2023-08-07T04:31:06;97214.19;;;12.51;70.52
32251;BME280;41295;48.518;9.206;2023-08-07T04:33:09;97213.22;;;12.54;70.17
32251;BME280;41295;48.518;9.206;2023-08-07T04:35:12;97216.66;;;12.55;69.75
32251;BME280;41295;48.518;9.206;2023-08-07T04:37:15;97208.88;;;12.53;69.60
32251;BME280;41295;48.518;9.206;2023-08-07T04:39:20;97208.03;;;12.53;69.80
32251;BME280;41295;48.518;9.206;2023-08-07T04:41:23;97221.25;;;12.49;69.52
32251;BME280;41295;48.518;9.206;2023-08-07T04:43:25;97218.50;;;12.53;68.96
32251;BME280;41295;48.518;9.206;2023-08-07T04:45:29;97217.66;;;12.52;69.34
32251;BME280;41295;48.518;9.206;2023-08-07T04:47:31;97222.25;;;12.47;69.62
32251;BME280;41295;48.518;9.206;2023-08-07T04:49:34;97210.94;;;12.46;69.90
32251;BME280;41295;48.518;9.206;2023-08-07T04:51:37;97216.25;;;12.45;69.97
32251;BME280;41295;48.518;9.206;2023-08-07T04:53:39;97221.41;;;12.46;70.17
32251;BME280;41295;48.518;9.206;2023-08-07T04:55:43;97221.56;;;12.43;70.12
32251;BME280;41295;48.518;9.206;2023-08-07T04:57:46;97229.59;;;12.38;70.42
32251;BME280;41295;48.518;9.206;2023-08-07T04:59:51;97222.38;;;12.44;69.83
32251;BME280;41295;48.518;9.206;2023-08-07T05:01:54;97229.81;;;12.34;70.15
32251;BME280;41295;48.518;9.206;2023-08-07T05:03:57;97234.00;;;12.38;69.87
32251;BME280;41295;48.518;9.206;2023-08-07T05:06:01;97229.03;;;12.32;70.22
32251;BME280;41295;48.518;9.206;2023-08-07T05:08:04;97231.56;;;12.33;70.58
32251;BME280;41295;48.518;9.206;2023-08-07T05:10:08;97234.41;;;12.29;70.81
32251;BME280;41295;48.518;9.206;2023-08-07T05:12:12;97231.66;;;12.32;70.37
32251;BME280;41295;48.518;9.206;2023-08-07T05:14:15;97237.72;;;12.32;70.26
32251;BME280;41295;48.518;9.206;2023-08-07T05:16:17;97227.34;;;12.31;70.38
32251;BME280;41295;48.518;9.206;2023-08-07T05:18:20;97223.09;;;12.28;70.71
32251;BME280;41295;48.518;9.206;2023-08-07T05:20:23;97229.88;;;12.32;70.57
32251;BME280;41295;48.518;9.206;2023-08-07T05:22:26;97229.19;;;12.29;70.92
32251;BME280;41295;48.518;9.206;2023-08-07T05:24:28;97229.97;;;12.31;70.38
32251;BME280;41295;48.518;9.206;2023-08-07T05:26:35;97232.50;;;12.32;70.75
32251;BME280;41295;48.518;9.206;2023-08-07T05:28:39;97234.97;;;12.35;70.58
32251;BME280;41295;48.518;9.206;2023-08-07T05:30:42;97235.03;;;12.34;70.68
32251;BME280;41295;48.518;9.206;2023-08-07T05:32:45;97229.72;;;12.35;70.71
32251;BME280;41295;48.518;9.206;2023-08-07T05:34:47;97229.03;;;12.32;71.02
32251;BME280;41295;48.518;9.206;2023-08-07T05:36:51;97237.03;;;12.48;70.54
32251;BME280;41295;48.518;9.206;2023-08-07T05:38:54;97238.13;;;12.42;70.73
32251;BME280;41295;48.518;9.206;2023-08-07T05:40:57;97239.06;;;12.41;70.53
32251;BME280;41295;48.518;9.206;2023-08-07T05:42:59;97237.44;;;12.38;70.75
32251;BME280;41295;48.518;9.206;2023-08-07T05:45:04;97238.03;;;12.45;71.01
32251;BME280;41295;48.518;9.206;2023-08-07T05:47:07;97239.72;;;12.46;71.33
32251;BME280;41295;48.518;9.206;2023-08-07T05:49:10;97241.97;;;12.54;70.89
32251;BME280;41295;48.518;9.206;2023-08-07T05:51:13;97243.94;;;12.49;71.26
32251;BME280;41295;48.518;9.206;2023-08-07T05:53:16;97239.38;;;12.54;70.83
32251;BME280;41295;48.518;9.206;2023-08-07T05:55:18;97237.47;;;12.58;71.02
32251;BME280;41295;48.518;9.206;2023-08-07T05:57:21;97250.53;;;12.58;71.01
32251;BME280;41295;48.518;9.206;2023-08-07T05:59:23;97250.09;;;12.67;71.08
32251;BME280;41295;48.518;9.206;2023-08-07T06:01:27;97256.09;;;12.69;71.14
32251;BME280;41295;48.518;9.206;2023-08-07T06:03:32;97253.84;;;12.81;70.69
32251;BME280;41295;48.518;9.206;2023-08-07T06:05:35;97259.97;;;12.80;70.23
32251;BME280;41295;48.518;9.206;2023-08-07T06:07:37;97262.59;;;12.80;70.45
32251;BME280;41295;48.518;9.206;2023-08-07T06:09:39;97258.91;;;12.84;70.37
32251;BME280;41295;48.518;9.206;2023-08-07T06:11:42;97260.53;;;12.86;69.92
32251;BME280;41295;48.518;9.206;2023-08-07T06:13:44;97264.00;;;12.87;70.29
32251;BME280;41295;48.518;9.206;2023-08-07T06:15:46;97261.84;;;12.95;69.59
32251;BME280;41295;48.518;9.206;2023-08-07T06:17:51;97270.75;;;13.10;68.98
32251;BME280;41295;48.518;9.206;2023-08-07T06:19:53;97269.19;;;13.06;69.14
32251;BME280;41295;48.518;9.206;2023-08-07T06:21:55;97274.09;;;13.14;69.19
32251;BME280;41295;48.518;9.206;2023-08-07T06:23:59;97277.69;;;13.11;69.36
32251;BME280;41295;48.518;9.206;2023-08-07T06:26:02;97274.09;;;13.14;69.46
32251;BME280;41295;48.518;9.206;2023-08-07T06:28:05;97276.38;;;13.20;69.28
32251;BME280;41295;48.518;9.206;2023-08-07T06:30:09;97278.81;;;13.25;68.78
32251;BME280;41295;48.518;9.206;2023-08-07T06:32:12;97288.13;;;13.31;68.99
32251;BME280;41295;48.518;9.206;2023-08-07T06:34:16;97288.75;;;13.36;68.53
32251;BME280;41295;48.518;9.206;2023-08-07T06:36:19;97281.72;;;13.37;68.42
32251;BME280;41295;48.518;9.206;2023-08-07T06:38:21;97289.66;;;13.35;68.56
32251;BME280;41295;48.518;9.206;2023-08-07T06:40:24;97285.03;;;13.40;68.49
32251;BME280;41295;48.518;9.206;2023-08-07T06:42:27;97283.44;;;13.38;68.82
32251;BME280;41295;48.518;9.206;2023-08-07T06:44:29;97288.53;;;13.41;68.67
32251;BME280;41295;48.518;9.206;2023-08-07T06:46:32;97287.53;;;13.43;68.42
32251;BME280;41295;48.518;9.206;2023-08-07T06:48:35;97282.16;;;13.46;68.84
32251;BME280;41295;48.518;9.206;2023-08-07T06:50:39;97292.47;;;13.50;68.47
32251;BME280;41295;48.518;9.206;2023-08-07T06:52:42;97282.41;;;13.59;67.77
32251;BME280;41295;48.518;9.206;2023-08-07T06:54:44;97283.69;;;13.51;68.37
32251;BME280;41295;48.518;9.206;2023-08-07T06:56:47;97287.88;;;13.55;68.44
32251;BME280;41295;48.518;9.206;2023-08-07T06:58:50;97286.88;;;13.57;68.19
32251;BME280;41295;48.518;9.206;2023-08-07T07:00:52;97281.56;;;13.59;68.34
32251;BME280;41295;48.518;9.206;2023-08-07T07:02:55;97283.84;;;13.65;68.32
32251;BME280;41295;48.518;9.206;2023-08-07T07:04:58;97280.16;;;13.69;67.92
32251;BME280;41295;48.518;9.206;2023-08-07T07:07:02;97283.31;;;13.76;67.90
32251;BME280;41295;48.518;9.206;2023-08-07T07:09:05;97285.16;;;13.74;68.15
32251;BME280;41295;48.518;9.206;2023-08-07T07:11:08;97288.28;;;13.82;68.30
32251;BME280;41295;48.518;9.206;2023-08-07T07:13:11;97278.78;;;13.80;67.82
32251;BME280;41295;48.518;9.206;2023-08-07T07:15:14;97284.97;;;13.79;68.16
32251;BME280;41295;48.518;9.206;2023-08-07T07:17:16;97288.97;;;13.86;67.83
32251;BME280;41295;48.518;9.206;2023-08-07T07:19:19;97282.53;;;13.92;67.86
32251;BME280;41295;48.518;9.206;2023-08-07T07:21:22;97291.25;;;13.92;68.54
32251;BME280;41295;48.518;9.206;2023-08-07T07:23:27;97287.56;;;13.97;68.34
32251;BME280;41295;48.518;9.206;2023-08-07T07:25:29;97293.50;;;14.00;68.57
32251;BME280;41295;48.518;9.206;2023-08-07T07:27:32;97295.84;;;14.23;67.12
32251;BME280;41295;48.518;9.206;2023-08-07T07:29:35;97297.69;;;14.21;67.75
32251;BME280;41295;48.518;9.206;2023-08-07T07:31:37;97295.66;;;14.43;67.15
32251;BME280;41295;48.518;9.206;2023-08-07T07:33:40;97300.13;;;14.41;67.13
32251;BME280;41295;48.518;9.206;2023-08-07T07:35:42;97288.09;;;14.37;67.31
32251;BME280;41295;48.518;9.206;2023-08-07T07:37:45;97299.88;;;14.46;66.28
32251;BME280;41295;48.518;9.206;2023-08-07T07:39:49;97300.13;;;14.41;66.38
32251;BME280;41295;48.518;9.206;2023-08-07T07:41:52;97300.97;;;14.42;66.73
32251;BME280;41295;48.518;9.206;2023-08-07T07:43:55;97309.19;;;14.52;66.12
32251;BME280;41295;48.518;9.206;2023-08-07T07:45:58;97314.28;;;14.55;66.79
32251;BME280;41295;48.518;9.206;2023-08-07T07:48:01;97300.56;;;14.50;67.04
32251;BME280;41295;48.518;9.206;2023-08-07T07:50:06;97301.50;;;14.49;68.06
32251;BME280;41295;48.518;9.206;2023-08-07T07:52:09;97296.59;;;14.59;67.70
32251;BME280;41295;48.518;9.206;2023-08-07T07:54:12;97307.13;;;14.75;65.74
32251;BME280;41295;48.518;9.206;2023-08-07T07:56:17;97295.75;;;14.74;66.02
32251;BME280;41295;48.518;9.206;2023-08-07T07:58:20;97299.50;;;14.70;66.51
32251;BME280;41295;48.518;9.206;2023-08-07T08:00:23;97303.91;;;14.70;66.77
32251;BME280;41295;48.518;9.206;2023-08-07T08:02:28;97302.31;;;14.83;65.28
32251;BME280;41295;48.518;9.206;2023-08-07T08:04:31;97292.84;;;14.97;63.90
32251;BME280;41295;48.518;9.206;2023-08-07T08:06:36;97304.63;;;14.89;63.93
32251;BME280;41295;48.518;9.206;2023-08-07T08:08:41;97302.69;;;14.93;64.64
32251;BME280;41295;48.518;9.206;2023-08-07T08:10:44;97305.97;;;14.97;64.26
32251;BME280;41295;48.518;9.206;2023-08-07T08:12:50;97306.31;;;15.07;64.78
32251;BME280;41295;48.518;9.206;2023-08-07T08:14:53;97309.00;;;15.21;63.55
32251;BME280;41295;48.518;9.206;2023-08-07T08:16:57;97303.09;;;15.18;63.24
32251;BME280;41295;48.518;9.206;2023-08-07T08:18:59;97307.25;;;15.22;63.74
32251;BME280;41295;48.518;9.206;2023-08-07T08:21:03;97312.59;;;15.20;63.09
32251;BME280;41295;48.518;9.206;2023-08-07T08:23:08;97322.13;;;15.21;62.14
32251;BME280;41295;48.518;9.206;2023-08-07T08:25:10;97308.44;;;15.16;61.81
32251;BME280;41295;48.518;9.206;2023-08-07T08:27:13;97303.09;;;15.18;59.19
32251;BME280;41295;48.518;9.206;2023-08-07T08:29:17;97314.00;;;15.10;59.15
32251;BME280;41295;48.518;9.206;2023-08-07T08:31:20;97312.59;;;15.20;58.93
32251;BME280;41295;48.518;9.206;2023-08-07T08:33:25;97309.19;;;15.18;59.41
32251;BME280;41295;48.518;9.206;2023-08-07T08:35:28;97321.88;;;15.26;56.65
32251;BME280;41295;48.518;9.206;2023-08-07T08:37:30;97302.81;;;15.22;57.73
32251;BME280;41295;48.518;9.206;2023-08-07T08:39:33;97318.81;;;15.34;58.61
32251;BME280;41295;48.518;9.206;2023-08-07T08:41:36;97300.69;;;15.45;57.52
32251;BME280;41295;48.518;9.206;2023-08-07T08:43:40;97316.34;;;15.47;56.32
32251;BME280;41295;48.518;9.206;2023-08-07T08:45:45;97318.72;;;15.51;57.28
32251;BME280;41295;48.518;9.206;2023-08-07T08:47:49;97321.16;;;15.55;58.13
32251;BME280;41295;48.518;9.206;2023-08-07T08:49:58;97316.84;;;15.54;59.38
32251;BME280;41295;48.518;9.206;2023-08-07T08:52:04;97301.25;;;15.50;57.21
32251;BME280;41295;48.518;9.206;2023-08-07T08:54:07;97315.31;;;15.49;58.16
32251;BME280;41295;48.518;9.206;2023-08-07T08:56:10;97309.78;;;15.70;54.14
32251;BME280;41295;48.518;9.206;2023-08-07T08:58:15;97320.78;;;15.77;53.77
32251;BME280;41295;48.518;9.206;2023-08-07T09:00:18;97317.00;;;15.81;53.93
32251;BME280;41295;48.518;9.206;2023-08-07T09:02:24;97319.91;;;15.77;53.53
32251;BME280;41295;48.518;9.206;2023-08-07T09:04:27;97312.88;;;15.77;54.18
32251;BME280;41295;48.518;9.206;2023-08-07T09:06:31;97319.16;;;15.74;54.34
32251;BME280;41295;48.518;9.206;2023-08-07T09:08:34;97321.53;;;15.79;53.96
32251;BME280;41295;48.518;9.206;2023-08-07T09:10:37;97312.03;;;15.77;53.63
32251;BME280;41295;48.518;9.206;2023-08-07T09:12:41;97320.06;;;15.90;53.71
32251;BME280;41295;48.518;9.206;2023-08-07T09:14:45;97311.50;;;15.86;53.95
32251;BME280;41295;48.518;9.206;2023-08-07T09:16:52;97324.47;;;15.89;55.31
32251;BME280;41295;48.518;9.206;2023-08-07T09:18:58;97329.19;;;15.98;53.77
32251;BME280;41295;48.518;9.206;2023-08-07T09:21:04;97328.84;;;16.05;51.82
32251;BME280;41295;48.518;9.206;2023-08-07T09:23:07;97340.59;;;16.14;52.06
32251;BME280;41295;48.518;9.206;2023-08-07T09:25:09;97320.31;;;16.16;52.90
32251;BME280;41295;48.518;9.206;2023-08-07T09:27:13;97327.44;;;16.14;53.04
32251;BME280;41295;48.518;9.206;2023-08-07T09:29:16;97342.78;;;16.21;53.51
32251;BME280;41295;48.518;9.206;2023-08-07T09:31:19;97334.03;;;16.21;53.15
32251;BME280;41295;48.518;9.206;2023-08-07T09:33:25;97338.00;;;16.28;51.97
32251;BME280;41295;48.518;9.206;2023-08-07T09:35:31;97335.09;;;16.33;52.58
32251;BME280;41295;48.518;9.206;2023-08-07T09:37:36;97354.09;;;16.38;50.78
32251;BME280;41295;48.518;9.206;2023-08-07T09:39:40;97344.88;;;16.31;51.26
32251;BME280;41295;48.518;9.206;2023-08-07T09:41:43;97342.25;;;16.31;51.87
32251;BME280;41295;48.518;9.206;2023-08-07T09:43:48;97344.00;;;16.30;53.21
32251;BME280;41295;48.518;9.206;2023-08-07T09:46:01;97339.78;;;16.42;52.01
32251;BME280;41295;48.518;9.206;2023-08-07T09:48:05;97340.53;;;16.44;52.14
32251;BME280;41295;48.518;9.206;2023-08-07T09:50:15;97362.94;;;16.52;51.21
32251;BME280;41295;48.518;9.206;2023-08-07T09:52:19;97347.78;;;16.55;50.07
32251;BME280;41295;48.518;9.206;2023-08-07T09:54:23;97351.00;;;16.61;49.68
32251;BME280;41295;48.518;9.206;2023-08-07T09:56:25;97351.00;;;16.61;50.54
32251;BME280;41295;48.518;9.206;2023-08-07T09:58:28;97357.56;;;16.68;50.69
32251;BME280;41295;48.518;9.206;2023-08-07T10:00:33;97342.34;;;16.73;49.43
32251;BME280;41295;48.518;9.206;2023-08-07T10:02:36;97354.47;;;16.61;47.77
32251;BME280;41295;48.518;9.206;2023-08-07T10:04:39;97359.91;;;16.73;48.94
32251;BME280;41295;48.518;9.206;2023-08-07T10:06:43;97368.19;;;16.66;50.27
32251;BME280;41295;48.518;9.206;2023-08-07T10:08:46;97369.97;;;16.66;50.04
32251;BME280;41295;48.518;9.206;2023-08-07T10:10:49;97371.94;;;16.62;49.27
32251;BME280;41295;48.518;9.206;2023-08-07T10:12:52;97372.72;;;16.64;48.86
32251;BME280;41295;48.518;9.206;2023-08-07T10:14:55;97361.97;;;16.67;49.47
32251;BME280;41295;48.518;9.206;2023-08-07T10:16:58;97365.56;;;16.66;48.56
32251;BME280;41295;48.518;9.206;2023-08-07T10:19:01;97368.97;;;16.68;48.44
32251;BME280;41295;48.518;9.206;2023-08-07T10:21:05;97390.94;;;16.67;48.55
32251;BME280;41295;48.518;9.206;2023-08-07T10:23:09;97371.13;;;16.62;48.73
32251;BME280;41295;48.518;9.206;2023-08-07T10:25:14;97371.19;;;16.60;50.60
32251;BME280;41295;48.518;9.206;2023-08-07T10:27:21;97362.63;;;16.71;51.42
32251;BME280;41295;48.518;9.206;2023-08-07T10:29:26;97378.06;;;16.77;51.43
32251;BME280;41295;48.518;9.206;2023-08-07T10:31:30;97374.78;;;16.88;49.87
32251;BME280;41295;48.518;9.206;2023-08-07T10:33:33;97375.03;;;16.83;48.76
32251;BME280;41295;48.518;9.206;2023-08-07T10:35:36;97369.41;;;16.90;48.98
32251;BME280;41295;48.518;9.206;2023-08-07T10:37:39;97376.91;;;16.96;49.01
32251;BME280;41295;48.518;9.206;2023-08-07T10:40:03;97368.09;;;16.97;49.71
32251;BME280;41295;48.518;9.206;2023-08-07T10:42:08;97370.06;;;17.08;47.99
32251;BME280;41295;48.518;9.206;2023-08-07T10:44:18;97374.47;;;17.07;47.11
32251;BME280;41295;48.518;9.206;2023-08-07T10:46:21;97368.19;;;17.10;47.62
32251;BME280;41295;48.518;9.206;2023-08-07T10:48:26;97368.19;;;17.10;48.53
32251;BME280;41295;48.518;9.206;2023-08-07T10:50:29;97366.75;;;17.19;48.72
32251;BME280;41295;48.518;9.206;2023-08-07T10:52:33;97369.75;;;17.27;48.45
32251;BME280;41295;48.518;9.206;2023-08-07T10:54:39;97374.72;;;17.32;47.65